sensor_id;sensor_type;location;lat;lon;timestamp;P1;durP1;ratioP1;P2;durP2;ratioP2
19867;SDS011;10096;51.112;6.776;2022-08-21T00:01:36;11.88;;;10.65;;
19867;SDS011;10096;51.112;6.776;2022-08-21T00:04:05;11.55;;;10.35;;
19867;SDS011;10096;51.112;6.776;2022-08-21T00:06:33;12.05;;;10.60;;
19867;SDS011;10096;51.112;6.776;2022-08-21T00:09:01;11.57;;;10.48;;
19867;SDS011;10096;51.112;6.776;2022-08-21T00:11:28;12.15;;;10.70;;
19867;SDS011;10096;51.112;6.776;2022-08-21T00:13:55;11.77;;;10.63;;
19867;SDS011;10096;51.112;6.776;2022-08-21T00:16:22;11.75;;;10.55;;
19867;SDS011;10096;51.112;6.776;2022-08-21T00:18:49;13.15;;;11.82;;
19867;SDS011;10096;51.112;6.776;2022-08-21T00:21:18;15.85;;;12.18;;
19867;SDS011;10096;51.112;6.776;2022-08-21T00:23:45;13.23;;;11.70;;
19867;SDS011;10096;51.112;6.776;2022-08-21T00:26:12;12.65;;;11.35;;
19867;SDS011;10096;51.112;6.776;2022-08-21T00:28:38;12.60;;;11.27;;
19867;SDS011;10096;51.112;6.776;2022-08-21T00:31:05;13.48;;;11.73;;
19867;SDS011;10096;51.112;6.776;2022-08-21T00:33:33;12.93;;;11.48;;
19867;SDS011;10096;51.112;6.776;2022-08-21T00:36:00;12.50;;;11.30;;
19867;SDS011;10096;51.112;6.776;2022-08-21T00:38:29;13.35;;;11.35;;
19867;SDS011;10096;51.112;6.776;2022-08-21T00:40:58;11.25;;;10.07;;
19867;SDS011;10096;51.112;6.776;2022-08-21T00:43:28;12.05;;;10.93;;
19867;SDS011;10096;51.112;6.776;2022-08-21T00:45:57;11.43;;;9.82;;
19867;SDS011;10096;51.112;6.776;2022-08-21T00:48:25;11.38;;;10.18;;
19867;SDS011;10096;51.112;6.776;2022-08-21T00:50:53;11.93;;;10.63;;
19867;SDS011;10096;51.112;6.776;2022-08-21T00:53:24;10.90;;;9.80;;
19867;SDS011;10096;51.112;6.776;2022-08-21T00:55:54;11.27;;;9.60;;
19867;SDS011;10096;51.112;6.776;2022-08-21T00:58:21;13.07;;;10.15;;
19867;SDS011;10096;51.112;6.776;2022-08-21T01:00:50;12.95;;;10.63;;
19867;SDS011;10096;51.112;6.776;2022-08-21T01:03:20;12.98;;;10.65;;
19867;SDS011;10096;51.112;6.776;2022-08-21T01:05:49;11.20;;;10.10;;
19867;SDS011;10096;51.112;6.776;2022-08-21T01:08:16;11.52;;;10.40;;
19867;SDS011;10096;51.112;6.776;2022-08-21T01:10:45;11.55;;;10.40;;
19867;SDS011;10096;51.112;6.776;2022-08-21T01:13:15;11.60;;;10.43;;
19867;SDS011;10096;51.112;6.776;2022-08-21T01:15:44;11.27;;;10.18;;
19867;SDS011;10096;51.112;6.776;2022-08-21T01:18:16;13.55;;;11.15;;
19867;SDS011;10096;51.112;6.776;2022-08-21T01:20:45;13.02;;;10.82;;
19867;SDS011;10096;51.112;6.776;2022-08-21T01:23:24;12.45;;;10.98;;
19867;SDS011;10096;51.112;6.776;2022-08-21T01:25:51;12.75;;;11.15;;
19867;SDS011;10096;51.112;6.776;2022-08-21T01:28:18;12.23;;;10.98;;
19867;SDS011;10096;51.112;6.776;2022-08-21T01:30:47;12.32;;;11.13;;
19867;SDS011;10096;51.112;6.776;2022-08-21T01:33:16;13.35;;;11.80;;
19867;SDS011;10096;51.112;6.776;2022-08-21T01:35:44;13.75;;;12.35;;
19867;SDS011;10096;51.112;6.776;2022-08-21T01:38:12;12.32;;;10.95;;
19867;SDS011;10096;51.112;6.776;2022-08-21T01:40:39;12.57;;;10.90;;
19867;SDS011;10096;51.112;6.776;2022-08-21T01:43:06;12.50;;;10.98;;
19867;SDS011;10096;51.112;6.776;2022-08-21T01:45:33;11.93;;;10.60;;
19867;SDS011;10096;51.112;6.776;2022-08-21T01:47:59;12.80;;;11.15;;
19867;SDS011;10096;51.112;6.776;2022-08-21T01:50:27;12.80;;;11.57;;
19867;SDS011;10096;51.112;6.776;2022-08-21T01:52:54;14.27;;;12.77;;
19867;SDS011;10096;51.112;6.776;2022-08-21T01:55:22;17.83;;;12.15;;
19867;SDS011;10096;51.112;6.776;2022-08-21T01:57:49;14.27;;;12.23;;
19867;SDS011;10096;51.112;6.776;2022-08-21T02:00:18;13.82;;;12.32;;
19867;SDS011;10096;51.112;6.776;2022-08-21T02:02:48;13.75;;;11.65;;
19867;SDS011;10096;51.112;6.776;2022-08-21T02:05:15;13.27;;;11.95;;
19867;SDS011;10096;51.112;6.776;2022-08-21T02:07:44;12.90;;;11.80;;
19867;SDS011;10096;51.112;6.776;2022-08-21T02:10:14;15.27;;;12.43;;
19867;SDS011;10096;51.112;6.776;2022-08-21T02:12:44;13.82;;;12.63;;
19867;SDS011;10096;51.112;6.776;2022-08-21T02:15:11;14.70;;;13.15;;
19867;SDS011;10096;51.112;6.776;2022-08-21T02:17:39;14.73;;;13.25;;
19867;SDS011;10096;51.112;6.776;2022-08-21T02:20:08;13.60;;;12.30;;
19867;SDS011;10096;51.112;6.776;2022-08-21T02:22:35;14.10;;;12.70;;
19867;SDS011;10096;51.112;6.776;2022-08-21T02:25:02;15.13;;;13.52;;
19867;SDS011;10096;51.112;6.776;2022-08-21T02:27:32;15.23;;;13.68;;
19867;SDS011;10096;51.112;6.776;2022-08-21T02:30:07;15.85;;;12.95;;
19867;SDS011;10096;51.112;6.776;2022-08-21T02:32:36;15.18;;;13.75;;
19867;SDS011;10096;51.112;6.776;2022-08-21T02:35:03;17.02;;;13.05;;
19867;SDS011;10096;51.112;6.776;2022-08-21T02:37:31;14.50;;;12.60;;
19867;SDS011;10096;51.112;6.776;2022-08-21T02:39:58;13.48;;;12.15;;
19867;SDS011;10096;51.112;6.776;2022-08-21T02:42:25;15.43;;;13.52;;
19867;SDS011;10096;51.112;6.776;2022-08-21T02:44:52;14.40;;;13.10;;
19867;SDS011;10096;51.112;6.776;2022-08-21T02:47:20;14.82;;;13.13;;
19867;SDS011;10096;51.112;6.776;2022-08-21T02:49:47;16.35;;;13.68;;
19867;SDS011;10096;51.112;6.776;2022-08-21T02:52:14;14.00;;;12.57;;
19867;SDS011;10096;51.112;6.776;2022-08-21T02:54:41;14.75;;;13.13;;
19867;SDS011;10096;51.112;6.776;2022-08-21T02:57:08;18.20;;;14.07;;
19867;SDS011;10096;51.112;6.776;2022-08-21T02:59:35;14.57;;;13.15;;
19867;SDS011;10096;51.112;6.776;2022-08-21T03:02:02;14.57;;;13.15;;
19867;SDS011;10096;51.112;6.776;2022-08-21T03:04:31;16.73;;;12.57;;
19867;SDS011;10096;51.112;6.776;2022-08-21T03:06:58;14.05;;;12.68;;
19867;SDS011;10096;51.112;6.776;2022-08-21T03:09:25;14.23;;;12.75;;
19867;SDS011;10096;51.112;6.776;2022-08-21T03:11:52;16.10;;;13.57;;
19867;SDS011;10096;51.112;6.776;2022-08-21T03:14:19;14.93;;;13.50;;
19867;SDS011;10096;51.112;6.776;2022-08-21T03:16:46;15.75;;;14.23;;
19867;SDS011;10096;51.112;6.776;2022-08-21T03:19:13;14.45;;;13.00;;
19867;SDS011;10096;51.112;6.776;2022-08-21T03:21:41;13.20;;;11.90;;
19867;SDS011;10096;51.112;6.776;2022-08-21T03:24:08;15.45;;;13.57;;
19867;SDS011;10096;51.112;6.776;2022-08-21T03:26:35;16.35;;;14.75;;
19867;SDS011;10096;51.112;6.776;2022-08-21T03:29:02;15.98;;;14.32;;
19867;SDS011;10096;51.112;6.776;2022-08-21T03:31:42;13.98;;;12.40;;
19867;SDS011;10096;51.112;6.776;2022-08-21T03:34:12;14.57;;;13.27;;
19867;SDS011;10096;51.112;6.776;2022-08-21T03:36:41;13.18;;;12.07;;
19867;SDS011;10096;51.112;6.776;2022-08-21T03:39:08;12.73;;;11.43;;
19867;SDS011;10096;51.112;6.776;2022-08-21T03:41:34;13.68;;;12.30;;
19867;SDS011;10096;51.112;6.776;2022-08-21T03:44:02;14.93;;;13.40;;
19867;SDS011;10096;51.112;6.776;2022-08-21T03:46:29;17.67;;;13.90;;
19867;SDS011;10096;51.112;6.776;2022-08-21T03:48:56;14.43;;;12.95;;
19867;SDS011;10096;51.112;6.776;2022-08-21T03:51:23;13.73;;;12.40;;
19867;SDS011;10096;51.112;6.776;2022-08-21T03:53:54;12.98;;;11.88;;
19867;SDS011;10096;51.112;6.776;2022-08-21T03:56:21;15.18;;;13.70;;
19867;SDS011;10096;51.112;6.776;2022-08-21T03:58:47;17.70;;;14.25;;
19867;SDS011;10096;51.112;6.776;2022-08-21T04:01:14;15.02;;;12.18;;
19867;SDS011;10096;51.112;6.776;2022-08-21T04:03:41;15.02;;;12.88;;
19867;SDS011;10096;51.112;6.776;2022-08-21T04:06:08;14.50;;;12.98;;
19867;SDS011;10096;51.112;6.776;2022-08-21T04:08:35;15.52;;;12.77;;
19867;SDS011;10096;51.112;6.776;2022-08-21T04:11:03;13.63;;;12.18;;
19867;SDS011;10096;51.112;6.776;2022-08-21T04:13:32;13.50;;;12.20;;
19867;SDS011;10096;51.112;6.776;2022-08-21T04:15:59;15.35;;;12.30;;
19867;SDS011;10096;51.112;6.776;2022-08-21T04:18:25;14.93;;;13.27;;
19867;SDS011;10096;51.112;6.776;2022-08-21T04:20:52;14.38;;;12.25;;
19867;SDS011;10096;51.112;6.776;2022-08-21T04:23:21;13.65;;;12.30;;
19867;SDS011;10096;51.112;6.776;2022-08-21T04:25:48;14.13;;;12.63;;
19867;SDS011;10096;51.112;6.776;2022-08-21T04:28:17;16.27;;;13.20;;
19867;SDS011;10096;51.112;6.776;2022-08-21T04:30:44;14.05;;;12.57;;
19867;SDS011;10096;51.112;6.776;2022-08-21T04:33:11;14.23;;;12.75;;
19867;SDS011;10096;51.112;6.776;2022-08-21T04:35:38;14.95;;;13.02;;
19867;SDS011;10096;51.112;6.776;2022-08-21T04:38:05;19.75;;;14.13;;
19867;SDS011;10096;51.112;6.776;2022-08-21T04:40:32;13.60;;;12.30;;
19867;SDS011;10096;51.112;6.776;2022-08-21T04:43:00;18.55;;;14.05;;
19867;SDS011;10096;51.112;6.776;2022-08-21T04:45:31;14.82;;;13.35;;
19867;SDS011;10096;51.112;6.776;2022-08-21T04:48:00;14.95;;;13.40;;
19867;SDS011;10096;51.112;6.776;2022-08-21T04:50:30;17.20;;;13.55;;
19867;SDS011;10096;51.112;6.776;2022-08-21T04:53:03;14.43;;;12.75;;
19867;SDS011;10096;51.112;6.776;2022-08-21T04:55:31;17.92;;;13.60;;
19867;SDS011;10096;51.112;6.776;2022-08-21T04:57:59;15.80;;;13.45;;
19867;SDS011;10096;51.112;6.776;2022-08-21T05:00:27;17.95;;;13.43;;
19867;SDS011;10096;51.112;6.776;2022-08-21T05:02:55;15.10;;;13.45;;
19867;SDS011;10096;51.112;6.776;2022-08-21T05:05:25;16.42;;;12.00;;
19867;SDS011;10096;51.112;6.776;2022-08-21T05:07:53;15.23;;;12.85;;
19867;SDS011;10096;51.112;6.776;2022-08-21T05:10:21;13.85;;;11.70;;
19867;SDS011;10096;51.112;6.776;2022-08-21T05:12:48;14.43;;;11.45;;
19867;SDS011;10096;51.112;6.776;2022-08-21T05:15:15;13.23;;;11.23;;
19867;SDS011;10096;51.112;6.776;2022-08-21T05:17:42;12.35;;;10.70;;
19867;SDS011;10096;51.112;6.776;2022-08-21T05:20:12;11.77;;;10.38;;
19867;SDS011;10096;51.112;6.776;2022-08-21T05:22:39;14.93;;;10.65;;
19867;SDS011;10096;51.112;6.776;2022-08-21T05:25:07;11.43;;;10.15;;
19867;SDS011;10096;51.112;6.776;2022-08-21T05:27:34;11.40;;;10.15;;
19867;SDS011;10096;51.112;6.776;2022-08-21T05:30:02;13.00;;;9.30;;
19867;SDS011;10096;51.112;6.776;2022-08-21T05:32:30;9.93;;;8.88;;
19867;SDS011;10096;51.112;6.776;2022-08-21T05:34:57;10.38;;;9.38;;
19867;SDS011;10096;51.112;6.776;2022-08-21T05:37:25;12.13;;;9.57;;
19867;SDS011;10096;51.112;6.776;2022-08-21T05:39:52;10.40;;;8.40;;
19867;SDS011;10096;51.112;6.776;2022-08-21T05:42:19;11.57;;;9.20;;
19867;SDS011;10096;51.112;6.776;2022-08-21T05:44:46;11.38;;;8.68;;
19867;SDS011;10096;51.112;6.776;2022-08-21T05:47:13;10.18;;;8.77;;
19867;SDS011;10096;51.112;6.776;2022-08-21T05:49:40;10.27;;;8.25;;
19867;SDS011;10096;51.112;6.776;2022-08-21T05:52:07;11.13;;;7.97;;
19867;SDS011;10096;51.112;6.776;2022-08-21T05:54:37;10.30;;;8.15;;
19867;SDS011;10096;51.112;6.776;2022-08-21T05:57:04;10.02;;;7.13;;
19867;SDS011;10096;51.112;6.776;2022-08-21T05:59:31;12.68;;;7.85;;
19867;SDS011;10096;51.112;6.776;2022-08-21T06:01:58;11.60;;;7.72;;
19867;SDS011;10096;51.112;6.776;2022-08-21T06:04:25;10.45;;;7.55;;
19867;SDS011;10096;51.112;6.776;2022-08-21T06:06:52;8.35;;;7.07;;
19867;SDS011;10096;51.112;6.776;2022-08-21T06:09:19;8.88;;;7.18;;
19867;SDS011;10096;51.112;6.776;2022-08-21T06:11:48;11.32;;;8.02;;
19867;SDS011;10096;51.112;6.776;2022-08-21T06:14:14;8.80;;;7.20;;
19867;SDS011;10096;51.112;6.776;2022-08-21T06:16:42;9.35;;;7.30;;
19867;SDS011;10096;51.112;6.776;2022-08-21T06:19:09;10.40;;;8.32;;
19867;SDS011;10096;51.112;6.776;2022-08-21T06:21:36;8.27;;;6.95;;
19867;SDS011;10096;51.112;6.776;2022-08-21T06:24:03;9.73;;;7.60;;
19867;SDS011;10096;51.112;6.776;2022-08-21T06:26:31;9.85;;;7.85;;
19867;SDS011;10096;51.112;6.776;2022-08-21T06:29:00;8.52;;;7.30;;
19867;SDS011;10096;51.112;6.776;2022-08-21T06:31:27;11.75;;;7.47;;
19867;SDS011;10096;51.112;6.776;2022-08-21T06:33:54;8.35;;;7.07;;
19867;SDS011;10096;51.112;6.776;2022-08-21T06:36:22;8.20;;;7.05;;
19867;SDS011;10096;51.112;6.776;2022-08-21T06:38:49;8.85;;;6.93;;
19867;SDS011;10096;51.112;6.776;2022-08-21T06:41:16;9.65;;;6.32;;
19867;SDS011;10096;51.112;6.776;2022-08-21T06:43:43;9.27;;;6.85;;
19867;SDS011;10096;51.112;6.776;2022-08-21T06:46:11;7.45;;;6.50;;
19867;SDS011;10096;51.112;6.776;2022-08-21T06:48:39;9.98;;;7.32;;
19867;SDS011;10096;51.112;6.776;2022-08-21T06:51:06;8.82;;;6.53;;
19867;SDS011;10096;51.112;6.776;2022-08-21T06:53:33;7.70;;;6.53;;
19867;SDS011;10096;51.112;6.776;2022-08-21T06:56:00;7.68;;;6.63;;
19867;SDS011;10096;51.112;6.776;2022-08-21T06:58:30;6.63;;;5.63;;
19867;SDS011;10096;51.112;6.776;2022-08-21T07:00:57;7.72;;;5.43;;
19867;SDS011;10096;51.112;6.776;2022-08-21T07:03:26;7.13;;;5.15;;
19867;SDS011;10096;51.112;6.776;2022-08-21T07:05:55;6.05;;;5.45;;
19867;SDS011;10096;51.112;6.776;2022-08-21T07:08:23;8.63;;;6.15;;
19867;SDS011;10096;51.112;6.776;2022-08-21T07:10:51;9.45;;;5.40;;
19867;SDS011;10096;51.112;6.776;2022-08-21T07:13:19;8.55;;;4.90;;
19867;SDS011;10096;51.112;6.776;2022-08-21T07:15:46;7.57;;;5.00;;
19867;SDS011;10096;51.112;6.776;2022-08-21T07:18:13;8.48;;;5.50;;
19867;SDS011;10096;51.112;6.776;2022-08-21T07:20:43;7.18;;;5.25;;
19867;SDS011;10096;51.112;6.776;2022-08-21T07:23:11;9.20;;;5.60;;
19867;SDS011;10096;51.112;6.776;2022-08-21T07:25:43;7.50;;;5.03;;
19867;SDS011;10096;51.112;6.776;2022-08-21T07:28:10;6.93;;;4.82;;
19867;SDS011;10096;51.112;6.776;2022-08-21T07:30:37;6.63;;;4.65;;
19867;SDS011;10096;51.112;6.776;2022-08-21T07:33:04;6.80;;;4.38;;
19867;SDS011;10096;51.112;6.776;2022-08-21T07:35:31;7.93;;;5.70;;
19867;SDS011;10096;51.112;6.776;2022-08-21T07:38:00;7.35;;;4.85;;
19867;SDS011;10096;51.112;6.776;2022-08-21T07:40:26;7.18;;;4.10;;
19867;SDS011;10096;51.112;6.776;2022-08-21T07:42:53;7.05;;;5.25;;
19867;SDS011;10096;51.112;6.776;2022-08-21T07:45:20;6.30;;;3.65;;
19867;SDS011;10096;51.112;6.776;2022-08-21T07:47:50;5.38;;;4.00;;
19867;SDS011;10096;51.112;6.776;2022-08-21T07:50:17;7.03;;;4.10;;
19867;SDS011;10096;51.112;6.776;2022-08-21T07:52:45;6.38;;;4.00;;
19867;SDS011;10096;51.112;6.776;2022-08-21T07:55:15;5.72;;;4.10;;
19867;SDS011;10096;51.112;6.776;2022-08-21T07:57:44;7.85;;;4.35;;
19867;SDS011;10096;51.112;6.776;2022-08-21T08:00:13;7.18;;;4.13;;
19867;SDS011;10096;51.112;6.776;2022-08-21T08:02:43;6.88;;;3.55;;
19867;SDS011;10096;51.112;6.776;2022-08-21T08:05:14;7.95;;;4.03;;
19867;SDS011;10096;51.112;6.776;2022-08-21T08:07:42;7.43;;;4.20;;
19867;SDS011;10096;51.112;6.776;2022-08-21T08:10:15;5.20;;;3.50;;
19867;SDS011;10096;51.112;6.776;2022-08-21T08:12:43;4.57;;;2.75;;
19867;SDS011;10096;51.112;6.776;2022-08-21T08:15:13;6.43;;;3.25;;
19867;SDS011;10096;51.112;6.776;2022-08-21T08:17:42;6.75;;;2.83;;
19867;SDS011;10096;51.112;6.776;2022-08-21T08:20:09;6.13;;;3.00;;
19867;SDS011;10096;51.112;6.776;2022-08-21T08:22:39;6.05;;;2.92;;
19867;SDS011;10096;51.112;6.776;2022-08-21T08:25:08;6.35;;;3.97;;
19867;SDS011;10096;51.112;6.776;2022-08-21T08:27:37;6.45;;;2.80;;
19867;SDS011;10096;51.112;6.776;2022-08-21T08:30:06;5.65;;;3.35;;
19867;SDS011;10096;51.112;6.776;2022-08-21T08:32:36;6.07;;;2.90;;
19867;SDS011;10096;51.112;6.776;2022-08-21T08:35:05;5.35;;;3.17;;
19867;SDS011;10096;51.112;6.776;2022-08-21T08:37:33;5.03;;;3.22;;
19867;SDS011;10096;51.112;6.776;2022-08-21T08:40:03;27.65;;;25.08;;
19867;SDS011;10096;51.112;6.776;2022-08-21T08:42:31;48.17;;;44.78;;
19867;SDS011;10096;51.112;6.776;2022-08-21T08:45:02;6.88;;;5.75;;
19867;SDS011;10096;51.112;6.776;2022-08-21T08:47:33;3.80;;;2.28;;
19867;SDS011;10096;51.112;6.776;2022-08-21T08:50:05;5.80;;;3.60;;
19867;SDS011;10096;51.112;6.776;2022-08-21T08:52:35;4.15;;;2.38;;
19867;SDS011;10096;51.112;6.776;2022-08-21T08:55:08;6.00;;;2.65;;
19867;SDS011;10096;51.112;6.776;2022-08-21T08:57:39;4.78;;;2.45;;
19867;SDS011;10096;51.112;6.776;2022-08-21T09:00:13;3.70;;;2.85;;
19867;SDS011;10096;51.112;6.776;2022-08-21T09:02:43;3.35;;;2.22;;
19867;SDS011;10096;51.112;6.776;2022-08-21T09:05:16;3.40;;;2.15;;
19867;SDS011;10096;51.112;6.776;2022-08-21T09:07:50;3.83;;;2.25;;
19867;SDS011;10096;51.112;6.776;2022-08-21T09:10:30;4.15;;;2.30;;
19867;SDS011;10096;51.112;6.776;2022-08-21T09:13:07;2.50;;;2.30;;
19867;SDS011;10096;51.112;6.776;2022-08-21T09:15:45;5.72;;;2.45;;
19867;SDS011;10096;51.112;6.776;2022-08-21T09:18:26;3.97;;;2.65;;
19867;SDS011;10096;51.112;6.776;2022-08-21T09:21:07;4.82;;;2.72;;
19867;SDS011;10096;51.112;6.776;2022-08-21T09:23:43;4.72;;;2.67;;
19867;SDS011;10096;51.112;6.776;2022-08-21T09:26:21;4.13;;;2.38;;
19867;SDS011;10096;51.112;6.776;2022-08-21T09:28:51;4.70;;;2.85;;
19867;SDS011;10096;51.112;6.776;2022-08-21T09:31:24;5.38;;;2.42;;
19867;SDS011;10096;51.112;6.776;2022-08-21T09:34:00;4.90;;;2.20;;
19867;SDS011;10096;51.112;6.776;2022-08-21T09:36:33;5.90;;;2.22;;
19867;SDS011;10096;51.112;6.776;2022-08-21T09:39:03;3.17;;;2.25;;
19867;SDS011;10096;51.112;6.776;2022-08-21T09:41:31;3.35;;;2.78;;
19867;SDS011;10096;51.112;6.776;2022-08-21T09:44:00;7.18;;;3.20;;
19867;SDS011;10096;51.112;6.776;2022-08-21T09:46:31;3.25;;;2.90;;
19867;SDS011;10096;51.112;6.776;2022-08-21T09:48:59;3.50;;;3.13;;
19867;SDS011;10096;51.112;6.776;2022-08-21T09:51:28;4.35;;;2.95;;
19867;SDS011;10096;51.112;6.776;2022-08-21T09:54:00;4.35;;;2.88;;
19867;SDS011;10096;51.112;6.776;2022-08-21T09:56:51;4.43;;;3.10;;
19867;SDS011;10096;51.112;6.776;2022-08-21T09:59:37;7.07;;;2.40;;
19867;SDS011;10096;51.112;6.776;2022-08-21T10:02:23;4.45;;;2.53;;
19867;SDS011;10096;51.112;6.776;2022-08-21T10:04:54;4.20;;;2.67;;
19867;SDS011;10096;51.112;6.776;2022-08-21T10:07:23;4.82;;;2.67;;
19867;SDS011;10096;51.112;6.776;2022-08-21T10:09:59;5.80;;;3.10;;
19867;SDS011;10096;51.112;6.776;2022-08-21T10:12:29;5.07;;;3.25;;
19867;SDS011;10096;51.112;6.776;2022-08-21T10:15:08;6.28;;;3.17;;
19867;SDS011;10096;51.112;6.776;2022-08-21T10:17:45;4.75;;;2.78;;
19867;SDS011;10096;51.112;6.776;2022-08-21T10:20:27;7.43;;;3.60;;
19867;SDS011;10096;51.112;6.776;2022-08-21T10:23:05;6.78;;;3.33;;
19867;SDS011;10096;51.112;6.776;2022-08-21T10:25:44;6.28;;;2.80;;
19867;SDS011;10096;51.112;6.776;2022-08-21T10:28:17;2.92;;;2.50;;
19867;SDS011;10096;51.112;6.776;2022-08-21T10:30:56;5.60;;;2.83;;
19867;SDS011;10096;51.112;6.776;2022-08-21T10:33:44;5.30;;;2.10;;
19867;SDS011;10096;51.112;6.776;2022-08-21T10:36:20;4.70;;;2.67;;
19867;SDS011;10096;51.112;6.776;2022-08-21T10:38:59;3.88;;;2.55;;
19867;SDS011;10096;51.112;6.776;2022-08-21T10:41:41;4.80;;;2.58;;
19867;SDS011;10096;51.112;6.776;2022-08-21T10:44:23;4.40;;;2.72;;
19867;SDS011;10096;51.112;6.776;2022-08-21T10:46:57;5.95;;;2.55;;
19867;SDS011;10096;51.112;6.776;2022-08-21T10:49:38;4.40;;;2.50;;
19867;SDS011;10096;51.112;6.776;2022-08-21T10:52:22;6.53;;;3.33;;
19867;SDS011;10096;51.112;6.776;2022-08-21T10:55:02;6.00;;;2.95;;
19867;SDS011;10096;51.112;6.776;2022-08-21T10:57:36;4.97;;;2.95;;
19867;SDS011;10096;51.112;6.776;2022-08-21T11:00:12;4.13;;;2.90;;
19867;SDS011;10096;51.112;6.776;2022-08-21T11:02:42;3.83;;;2.67;;
19867;SDS011;10096;51.112;6.776;2022-08-21T11:05:17;5.80;;;3.92;;
19867;SDS011;10096;51.112;6.776;2022-08-21T11:07:51;2.97;;;2.50;;
19867;SDS011;10096;51.112;6.776;2022-08-21T11:10:22;4.00;;;2.83;;
19867;SDS011;10096;51.112;6.776;2022-08-21T11:12:52;4.15;;;2.58;;
19867;SDS011;10096;51.112;6.776;2022-08-21T11:15:27;4.07;;;2.80;;
19867;SDS011;10096;51.112;6.776;2022-08-21T11:18:01;4.35;;;2.35;;
19867;SDS011;10096;51.112;6.776;2022-08-21T11:20:38;3.60;;;2.58;;
19867;SDS011;10096;51.112;6.776;2022-08-21T11:23:11;4.80;;;3.00;;
19867;SDS011;10096;51.112;6.776;2022-08-21T11:25:44;4.32;;;2.67;;
19867;SDS011;10096;51.112;6.776;2022-08-21T11:28:15;5.00;;;3.58;;
19867;SDS011;10096;51.112;6.776;2022-08-21T11:30:48;3.33;;;2.58;;
19867;SDS011;10096;51.112;6.776;2022-08-21T11:33:28;4.45;;;2.90;;
19867;SDS011;10096;51.112;6.776;2022-08-21T11:36:08;5.40;;;3.50;;
19867;SDS011;10096;51.112;6.776;2022-08-21T11:38:42;5.55;;;3.50;;
19867;SDS011;10096;51.112;6.776;2022-08-21T11:41:19;6.15;;;3.67;;
19867;SDS011;10096;51.112;6.776;2022-08-21T11:43:53;2.85;;;2.42;;
19867;SDS011;10096;51.112;6.776;2022-08-21T11:46:31;3.55;;;3.05;;
19867;SDS011;10096;51.112;6.776;2022-08-21T11:49:17;6.95;;;3.17;;
19867;SDS011;10096;51.112;6.776;2022-08-21T11:51:56;7.50;;;3.58;;
19867;SDS011;10096;51.112;6.776;2022-08-21T11:54:34;5.75;;;3.08;;
19867;SDS011;10096;51.112;6.776;2022-08-21T11:57:04;6.18;;;3.08;;
19867;SDS011;10096;51.112;6.776;2022-08-21T11:59:39;5.18;;;3.00;;
19867;SDS011;10096;51.112;6.776;2022-08-21T12:02:12;5.10;;;3.03;;
19867;SDS011;10096;51.112;6.776;2022-08-21T12:04:43;5.38;;;2.85;;
19867;SDS011;10096;51.112;6.776;2022-08-21T12:07:16;5.25;;;3.25;;
19867;SDS011;10096;51.112;6.776;2022-08-21T12:09:54;5.63;;;3.25;;
19867;SDS011;10096;51.112;6.776;2022-08-21T12:12:24;4.72;;;2.75;;
19867;SDS011;10096;51.112;6.776;2022-08-21T12:15:07;3.83;;;2.75;;
19867;SDS011;10096;51.112;6.776;2022-08-21T12:17:51;3.92;;;3.17;;
19867;SDS011;10096;51.112;6.776;2022-08-21T12:20:23;4.40;;;2.60;;
19867;SDS011;10096;51.112;6.776;2022-08-21T12:23:16;4.68;;;3.30;;
19867;SDS011;10096;51.112;6.776;2022-08-21T12:26:00;4.28;;;2.70;;
19867;SDS011;10096;51.112;6.776;2022-08-21T12:28:36;9.25;;;4.20;;
19867;SDS011;10096;51.112;6.776;2022-08-21T12:31:05;4.60;;;3.08;;
19867;SDS011;10096;51.112;6.776;2022-08-21T12:33:49;5.85;;;3.85;;
19867;SDS011;10096;51.112;6.776;2022-08-21T12:36:20;8.30;;;5.25;;
19867;SDS011;10096;51.112;6.776;2022-08-21T12:38:54;9.25;;;5.13;;
19867;SDS011;10096;51.112;6.776;2022-08-21T12:41:25;6.35;;;3.67;;
19867;SDS011;10096;51.112;6.776;2022-08-21T12:43:57;5.13;;;4.07;;
19867;SDS011;10096;51.112;6.776;2022-08-21T12:46:31;7.65;;;3.28;;
19867;SDS011;10096;51.112;6.776;2022-08-21T12:49:02;4.97;;;3.35;;
19867;SDS011;10096;51.112;6.776;2022-08-21T12:51:37;4.25;;;2.80;;
19867;SDS011;10096;51.112;6.776;2022-08-21T12:54:25;4.25;;;2.97;;
19867;SDS011;10096;51.112;6.776;2022-08-21T12:56:57;6.00;;;3.00;;
19867;SDS011;10096;51.112;6.776;2022-08-21T12:59:27;7.45;;;3.58;;
19867;SDS011;10096;51.112;6.776;2022-08-21T13:01:55;3.17;;;2.45;;
19867;SDS011;10096;51.112;6.776;2022-08-21T13:04:27;4.35;;;2.40;;
19867;SDS011;10096;51.112;6.776;2022-08-21T13:07:04;6.70;;;2.45;;
19867;SDS011;10096;51.112;6.776;2022-08-21T13:09:50;5.18;;;2.92;;
19867;SDS011;10096;51.112;6.776;2022-08-21T13:12:23;5.20;;;2.45;;
19867;SDS011;10096;51.112;6.776;2022-08-21T13:14:51;3.25;;;2.80;;
19867;SDS011;10096;51.112;6.776;2022-08-21T13:17:21;4.53;;;2.58;;
19867;SDS011;10096;51.112;6.776;2022-08-21T13:19:54;4.50;;;3.00;;
19867;SDS011;10096;51.112;6.776;2022-08-21T13:22:23;3.13;;;2.50;;
19867;SDS011;10096;51.112;6.776;2022-08-21T13:24:53;5.18;;;3.10;;
19867;SDS011;10096;51.112;6.776;2022-08-21T13:27:22;6.38;;;2.47;;
19867;SDS011;10096;51.112;6.776;2022-08-21T13:30:05;2.38;;;2.00;;
19867;SDS011;10096;51.112;6.776;2022-08-21T13:32:37;4.05;;;2.72;;
19867;SDS011;10096;51.112;6.776;2022-08-21T13:35:12;3.78;;;2.60;;
19867;SDS011;10096;51.112;6.776;2022-08-21T13:37:42;3.97;;;2.95;;
19867;SDS011;10096;51.112;6.776;2022-08-21T13:40:13;7.75;;;3.30;;
19867;SDS011;10096;51.112;6.776;2022-08-21T13:42:43;6.60;;;3.15;;
19867;SDS011;10096;51.112;6.776;2022-08-21T13:45:14;2.42;;;2.22;;
19867;SDS011;10096;51.112;6.776;2022-08-21T13:47:43;3.55;;;2.50;;
19867;SDS011;10096;51.112;6.776;2022-08-21T13:50:13;3.08;;;2.33;;
19867;SDS011;10096;51.112;6.776;2022-08-21T13:52:46;3.90;;;2.22;;
19867;SDS011;10096;51.112;6.776;2022-08-21T13:55:17;2.80;;;1.95;;
19867;SDS011;10096;51.112;6.776;2022-08-21T13:57:45;3.60;;;2.40;;
19867;SDS011;10096;51.112;6.776;2022-08-21T14:00:14;3.72;;;2.35;;
19867;SDS011;10096;51.112;6.776;2022-08-21T14:02:43;4.28;;;2.67;;
19867;SDS011;10096;51.112;6.776;2022-08-21T14:05:16;2.92;;;2.10;;
19867;SDS011;10096;51.112;6.776;2022-08-21T14:07:48;3.17;;;2.50;;
19867;SDS011;10096;51.112;6.776;2022-08-21T14:10:21;4.28;;;2.42;;
19867;SDS011;10096;51.112;6.776;2022-08-21T14:12:54;4.22;;;2.63;;
19867;SDS011;10096;51.112;6.776;2022-08-21T14:15:24;3.95;;;2.38;;
19867;SDS011;10096;51.112;6.776;2022-08-21T14:17:53;3.25;;;2.08;;
19867;SDS011;10096;51.112;6.776;2022-08-21T14:20:28;4.50;;;1.95;;
19867;SDS011;10096;51.112;6.776;2022-08-21T14:22:56;2.88;;;2.58;;
19867;SDS011;10096;51.112;6.776;2022-08-21T14:25:38;2.40;;;2.20;;
19867;SDS011;10096;51.112;6.776;2022-08-21T14:28:11;5.50;;;3.70;;
19867;SDS011;10096;51.112;6.776;2022-08-21T14:30:44;2.45;;;1.90;;
19867;SDS011;10096;51.112;6.776;2022-08-21T14:33:13;3.00;;;2.10;;
19867;SDS011;10096;51.112;6.776;2022-08-21T14:35:48;3.78;;;2.58;;
19867;SDS011;10096;51.112;6.776;2022-08-21T14:38:17;3.47;;;2.60;;
19867;SDS011;10096;51.112;6.776;2022-08-21T14:40:47;2.60;;;2.40;;
19867;SDS011;10096;51.112;6.776;2022-08-21T14:43:20;4.25;;;2.33;;
19867;SDS011;10096;51.112;6.776;2022-08-21T14:45:47;4.53;;;3.20;;
19867;SDS011;10096;51.112;6.776;2022-08-21T14:48:14;4.75;;;2.63;;
19867;SDS011;10096;51.112;6.776;2022-08-21T14:50:41;3.92;;;2.63;;
19867;SDS011;10096;51.112;6.776;2022-08-21T14:53:10;6.53;;;3.40;;
19867;SDS011;10096;51.112;6.776;2022-08-21T14:55:37;6.70;;;2.83;;
19867;SDS011;10096;51.112;6.776;2022-08-21T14:58:21;3.42;;;2.10;;